createdAt,value
2019-04-30T00:01:00.446Z,44.10
2019-04-30T00:04:37.646Z,44.20
2019-04-30T00:07:38.363Z,44.00
2019-04-30T00:10:45.377Z,44.10
2019-04-30T00:13:55.424Z,44.00
2019-04-30T00:16:58.433Z,44.00
2019-04-30T00:20:05.310Z,44.00
2019-04-30T00:23:11.124Z,44.00
2019-04-30T00:26:17.253Z,44.00
2019-04-30T00:29:26.664Z,44.00
2019-04-30T00:32:30.645Z,43.90
2019-04-30T00:35:37.533Z,43.80
2019-04-30T00:38:44.821Z,43.80
2019-04-30T00:41:50.717Z,44.00
2019-04-30T00:44:59.605Z,43.60
2019-04-30T00:48:05.862Z,43.80
2019-04-30T00:51:17.834Z,43.80
2019-04-30T00:54:22.518Z,44.40
2019-04-30T00:57:27.468Z,43.60
2019-04-30T01:00:35.266Z,43.60
2019-04-30T01:03:49.409Z,43.40
2019-04-30T01:06:52.217Z,43.50
2019-04-30T01:09:57.858Z,43.50
2019-04-30T01:13:08.027Z,43.50
2019-04-30T01:16:11.836Z,43.40
2019-04-30T01:19:29.694Z,41.30
2019-04-30T01:22:28.061Z,42.00
2019-04-30T01:25:32.405Z,42.00
2019-04-30T01:28:39.421Z,41.90
2019-04-30T01:31:45.224Z,41.90
2019-04-30T01:34:53.832Z,42.00
2019-04-30T01:37:59.580Z,41.90
2019-04-30T01:41:07.145Z,42.00
2019-04-30T01:44:12.936Z,41.90
2019-04-30T01:47:21.369Z,42.00
2019-04-30T01:50:25.870Z,42.10
2019-04-30T01:53:31.528Z,42.10
2019-04-30T01:57:10.746Z,42.00
2019-04-30T02:00:33.688Z,42.00
2019-04-30T02:03:40.056Z,42.00
2019-04-30T02:06:45.833Z,42.00
2019-04-30T02:09:51.509Z,41.90
2019-04-30T02:12:58.951Z,41.80
2019-04-30T02:16:04.725Z,41.90
2019-04-30T02:19:11.436Z,41.80
2019-04-30T02:22:18.829Z,41.70
2019-04-30T02:25:24.382Z,41.70
2019-04-30T02:28:30.038Z,41.80
2019-04-30T02:31:35.866Z,41.50
2019-04-30T02:34:49.651Z,41.40
2019-04-30T02:38:12.481Z,41.50
2019-04-30T02:41:19.907Z,41.60
2019-04-30T02:44:26.566Z,41.50
2019-04-30T02:47:33.168Z,41.40
2019-04-30T02:50:40.686Z,41.30
2019-04-30T02:54:23.967Z,41.20
2019-04-30T02:57:30.013Z,41.20
2019-04-30T03:00:35.931Z,41.20
2019-04-30T03:03:42.802Z,41.20
2019-04-30T03:06:50.217Z,41.00
2019-04-30T03:09:55.710Z,40.90
2019-04-30T03:13:01.497Z,41.10
2019-04-30T03:16:09.447Z,40.90
2019-04-30T03:19:23.609Z,40.90
2019-04-30T03:22:30.240Z,40.80
2019-04-30T03:25:35.969Z,40.90
2019-04-30T03:28:41.595Z,40.70
2019-04-30T03:31:51.809Z,40.70
2019-04-30T03:34:54.552Z,40.50
2019-04-30T03:38:00.211Z,40.50
2019-04-30T03:45:42.731Z,40.50
2019-04-30T03:48:50.400Z,40.70
2019-04-30T03:51:56.386Z,40.70
2019-04-30T03:55:03.051Z,40.70
2019-04-30T03:58:09.345Z,40.50
2019-04-30T04:01:21.697Z,40.40
2019-04-30T04:04:45.078Z,40.40
2019-04-30T04:07:59.678Z,40.30
2019-04-30T04:11:10.730Z,40.80
2019-04-30T04:14:16.623Z,40.10
2019-04-30T04:17:23.173Z,40.30
2019-04-30T04:20:29.864Z,40.00
2019-04-30T04:23:35.742Z,40.20
2019-04-30T04:26:43.772Z,40.30
2019-04-30T04:29:51.089Z,40.20
2019-04-30T04:32:55.986Z,40.30
2019-04-30T04:36:01.622Z,40.70
2019-04-30T04:39:09.863Z,40.80
2019-04-30T04:42:15.576Z,41.00
2019-04-30T04:45:21.292Z,41.10
2019-04-30T04:48:29.612Z,41.10
2019-04-30T04:51:39.396Z,41.30
2019-04-30T04:54:43.183Z,41.30
2019-04-30T04:57:50.047Z,41.20
2019-04-30T05:00:55.909Z,40.40
2019-04-30T05:04:01.502Z,40.90
2019-04-30T05:07:08.974Z,41.00
2019-04-30T05:10:15.003Z,40.90
2019-04-30T05:13:22.337Z,41.10
2019-04-30T05:16:28.959Z,40.90
2019-04-30T05:19:34.601Z,41.00
2019-04-30T05:22:40.241Z,41.10
2019-04-30T05:25:49.086Z,41.20
2019-04-30T05:28:55.400Z,41.00
2019-04-30T05:32:01.615Z,44.30
2019-04-30T05:35:09.387Z,45.20
2019-04-30T05:38:14.930Z,41.40
2019-04-30T05:41:20.633Z,41.70
2019-04-30T05:44:26.395Z,42.30
2019-04-30T05:47:33.721Z,43.40
2019-04-30T05:50:39.518Z,43.80
2019-04-30T05:53:45.309Z,43.90
2019-04-30T05:56:51.006Z,44.00
2019-04-30T05:59:58.556Z,44.10
2019-04-30T06:03:04.280Z,44.40
2019-04-30T06:06:11.521Z,44.40
2019-04-30T06:09:31.744Z,44.40
2019-04-30T06:12:54.273Z,44.20
2019-04-30T06:16:08.708Z,44.80
2019-04-30T06:19:14.255Z,44.10
2019-04-30T06:22:20.388Z,44.00
2019-04-30T06:25:33.675Z,43.90
2019-04-30T06:28:35.169Z,43.80
2019-04-30T06:31:43.251Z,43.70
2019-04-30T06:34:49.847Z,43.80
2019-04-30T06:37:58.984Z,43.80
2019-04-30T06:41:05.780Z,43.60
2019-04-30T06:44:11.632Z,43.60
2019-04-30T06:47:20.037Z,43.50
2019-04-30T06:50:24.797Z,43.30
2019-04-30T06:53:30.726Z,43.30
2019-04-30T06:56:36.373Z,43.10
2019-04-30T06:59:42.024Z,42.90
2019-04-30T07:02:49.452Z,42.70
2019-04-30T07:05:55.233Z,42.40
2019-04-30T07:09:19.694Z,42.40
2019-04-30T07:13:01.275Z,41.70
2019-04-30T07:16:08.391Z,41.60
2019-04-30T07:19:15.341Z,41.50
2019-04-30T07:22:36.474Z,41.30
2019-04-30T07:25:29.437Z,41.30
2019-04-30T07:28:44.789Z,41.60
2019-04-30T07:31:42.713Z,41.50
2019-04-30T07:34:49.482Z,41.60
2019-04-30T07:38:00.581Z,41.70
2019-04-30T07:41:02.554Z,41.60
2019-04-30T07:44:10.998Z,41.70
2019-04-30T07:47:18.880Z,41.60
2019-04-30T07:50:26.294Z,41.50
2019-04-30T07:53:32.329Z,41.40
2019-04-30T07:56:41.506Z,41.40
2019-04-30T07:59:45.616Z,41.30
2019-04-30T08:03:22.638Z,41.40
2019-04-30T08:06:30.983Z,41.30
2019-04-30T08:09:41.552Z,41.30
2019-04-30T08:12:45.808Z,41.30
2019-04-30T08:15:51.906Z,41.20
2019-04-30T08:18:59.195Z,41.00
2019-04-30T08:22:05.925Z,41.00
2019-04-30T08:25:12.300Z,40.80
2019-04-30T08:28:19.036Z,40.70
2019-04-30T08:31:29.219Z,40.80
2019-04-30T08:34:35.808Z,40.80
2019-04-30T08:37:43.439Z,40.70
2019-04-30T08:40:56.098Z,40.80
2019-04-30T08:43:59.837Z,40.80
2019-04-30T08:47:06.139Z,41.00
2019-04-30T08:50:12.541Z,41.00
2019-04-30T08:53:28.982Z,41.90
2019-04-30T08:56:26.581Z,41.90
2019-04-30T08:59:32.328Z,41.90
2019-04-30T09:02:38.947Z,41.90
2019-04-30T09:06:19.560Z,41.90
2019-04-30T09:09:25.545Z,42.10
2019-04-30T09:12:31.314Z,42.30
2019-04-30T09:15:37.030Z,42.30
2019-04-30T09:18:42.791Z,42.50
2019-04-30T09:21:48.942Z,42.70
2019-04-30T09:24:54.725Z,42.80
2019-04-30T09:28:00.589Z,43.00
2019-04-30T09:31:08.615Z,43.20
2019-04-30T09:34:20.286Z,43.50
2019-04-30T09:37:22.976Z,43.80
2019-04-30T09:40:32.178Z,44.00
2019-04-30T09:43:35.996Z,44.40
2019-04-30T09:46:41.913Z,44.50
2019-04-30T09:49:49.529Z,44.50
2019-04-30T09:52:55.260Z,44.40
2019-04-30T09:56:01.036Z,45.10
2019-04-30T09:59:06.740Z,44.30
2019-04-30T10:02:13.290Z,44.20
2019-04-30T10:05:20.678Z,44.10
2019-04-30T10:08:26.806Z,44.10
2019-04-30T10:11:51.610Z,44.00
2019-04-30T10:14:59.149Z,42.30
2019-04-30T10:18:04.622Z,42.20
2019-04-30T10:21:10.314Z,41.30
2019-04-30T10:24:16.054Z,39.20
2019-04-30T10:27:21.832Z,40.10
2019-04-30T10:30:34.330Z,40.60
2019-04-30T10:33:40.155Z,41.00
2019-04-30T10:36:45.869Z,41.10
2019-04-30T10:39:52.005Z,41.40
2019-04-30T10:42:58.664Z,41.60
2019-04-30T10:46:04.482Z,41.90
2019-04-30T10:49:10.163Z,42.00
2019-04-30T10:52:16.263Z,42.00
2019-04-30T10:55:22.900Z,42.20
2019-04-30T10:58:28.543Z,42.30
2019-04-30T11:01:34.196Z,42.40
2019-04-30T11:04:39.933Z,42.50
2019-04-30T11:07:45.764Z,42.40
2019-04-30T11:10:51.564Z,42.50
2019-04-30T11:13:58.229Z,42.60
2019-04-30T11:17:04.221Z,42.50
2019-04-30T11:20:10.798Z,42.60
2019-04-30T11:23:21.084Z,42.70
2019-04-30T11:26:25.200Z,42.80
2019-04-30T11:29:33.157Z,42.80
2019-04-30T11:32:39.204Z,42.80
2019-04-30T11:35:45.085Z,43.00
2019-04-30T11:38:51.876Z,42.90
2019-04-30T11:41:57.488Z,43.00
2019-04-30T11:45:03.277Z,43.10
2019-04-30T11:48:09.115Z,43.20
2019-04-30T11:51:14.781Z,43.30
2019-04-30T11:54:20.545Z,43.20
2019-04-30T11:57:26.533Z,43.20
2019-04-30T12:00:35.768Z,43.20
2019-04-30T12:03:43.541Z,43.20
2019-04-30T12:06:49.492Z,43.20
2019-04-30T12:10:02.244Z,43.30
2019-04-30T12:13:25.148Z,43.30
2019-04-30T12:16:33.529Z,43.30
2019-04-30T12:19:38.845Z,43.50
2019-04-30T12:22:44.489Z,43.50
2019-04-30T12:25:50.373Z,43.40
2019-04-30T12:28:56.038Z,43.40
2019-04-30T12:32:01.651Z,43.50
2019-04-30T12:35:07.785Z,43.60
2019-04-30T12:38:13.483Z,43.50
2019-04-30T12:41:19.231Z,43.60
2019-04-30T12:44:24.925Z,43.60
2019-04-30T12:47:32.074Z,43.60
2019-04-30T12:50:43.934Z,43.80
2019-04-30T12:53:53.638Z,43.80
2019-04-30T12:57:05.953Z,43.80
2019-04-30T13:00:13.487Z,43.80
2019-04-30T13:03:19.319Z,43.80
2019-04-30T13:06:25.414Z,43.70
2019-04-30T13:09:32.063Z,43.80
2019-04-30T13:12:40.000Z,43.90
2019-04-30T13:15:45.812Z,44.00
2019-04-30T13:18:51.462Z,44.10
2019-04-30T13:21:58.661Z,44.00
2019-04-30T13:25:04.783Z,44.00
2019-04-30T13:28:14.971Z,44.20
2019-04-30T13:31:20.630Z,44.10
2019-04-30T13:34:45.281Z,44.10
2019-04-30T13:37:56.006Z,44.20
2019-04-30T13:41:23.660Z,44.10
2019-04-30T13:44:36.777Z,44.10
2019-04-30T13:47:42.461Z,44.10
2019-04-30T13:50:48.153Z,44.20
2019-04-30T13:53:54.844Z,44.40
2019-04-30T13:57:00.476Z,45.00
2019-04-30T14:00:08.684Z,44.40
2019-04-30T14:03:22.691Z,44.40
2019-04-30T14:06:30.025Z,44.50
2019-04-30T14:09:35.909Z,44.50
2019-04-30T14:12:47.230Z,44.50
2019-04-30T14:15:52.846Z,44.70
2019-04-30T14:18:58.817Z,44.70
2019-04-30T14:22:05.966Z,44.60
2019-04-30T14:25:13.588Z,44.60
2019-04-30T14:28:20.269Z,44.50
2019-04-30T14:31:28.827Z,44.60
2019-04-30T14:34:34.744Z,44.70
2019-04-30T14:37:40.712Z,44.70
2019-04-30T14:40:46.878Z,44.70
2019-04-30T14:44:02.405Z,44.80
2019-04-30T14:47:20.559Z,44.80
2019-04-30T14:50:25.650Z,44.80
2019-04-30T14:53:49.983Z,44.80
2019-04-30T14:57:14.285Z,44.80
2019-04-30T15:00:32.420Z,44.80
2019-04-30T15:03:39.527Z,44.90
2019-04-30T15:06:45.513Z,44.90
2019-04-30T15:09:51.145Z,44.90
2019-04-30T15:12:56.926Z,44.80
2019-04-30T15:16:02.656Z,44.80
2019-04-30T15:19:08.341Z,41.00
2019-04-30T15:22:14.169Z,42.60
2019-04-30T15:25:20.581Z,43.40
2019-04-30T15:28:32.225Z,44.10
2019-04-30T15:31:34.505Z,44.40
2019-04-30T15:34:42.456Z,44.70
2019-04-30T15:37:49.786Z,44.60
2019-04-30T15:40:55.518Z,44.60
2019-04-30T15:44:01.336Z,44.70
2019-04-30T15:47:09.160Z,44.60
2019-04-30T15:50:16.096Z,44.70
2019-04-30T15:53:21.817Z,44.80
2019-04-30T15:56:35.342Z,44.60
2019-04-30T15:59:46.682Z,44.70
2019-04-30T16:03:06.800Z,44.70
2019-04-30T16:06:12.554Z,44.70
2019-04-30T16:09:24.597Z,44.70
2019-04-30T16:12:38.881Z,44.70
2019-04-30T16:15:44.564Z,44.70
2019-04-30T16:18:52.021Z,44.70
2019-04-30T16:21:58.853Z,44.70
2019-04-30T16:25:04.776Z,44.70
2019-04-30T16:28:10.436Z,44.70
2019-04-30T16:31:16.413Z,44.80
2019-04-30T16:34:23.369Z,44.80
2019-04-30T16:37:29.047Z,44.80
2019-04-30T16:40:34.792Z,44.70
2019-04-30T16:43:40.557Z,44.90
2019-04-30T16:46:46.633Z,45.00
2019-04-30T16:49:52.386Z,44.90
2019-04-30T16:52:58.035Z,44.90
2019-04-30T16:56:04.918Z,44.10
2019-04-30T16:59:14.185Z,43.90
2019-04-30T17:02:21.714Z,43.40
2019-04-30T17:05:36.237Z,43.70
2019-04-30T17:08:49.328Z,43.60
2019-04-30T17:12:05.466Z,43.60
2019-04-30T17:15:30.877Z,43.30
2019-04-30T17:18:36.620Z,43.40
2019-04-30T17:21:42.253Z,43.30
2019-04-30T17:24:49.106Z,43.30
2019-04-30T17:27:55.184Z,43.30
2019-04-30T17:31:00.909Z,43.40
2019-04-30T17:34:06.706Z,43.30
2019-04-30T17:37:12.595Z,43.60
2019-04-30T17:40:19.272Z,43.80
2019-04-30T17:43:24.973Z,43.90
2019-04-30T17:46:30.758Z,44.00
2019-04-30T17:49:36.377Z,44.00
2019-04-30T17:52:42.056Z,43.80
2019-04-30T17:55:49.098Z,43.90
2019-04-30T17:58:55.851Z,43.70
2019-04-30T18:02:03.820Z,43.60
2019-04-30T18:05:11.428Z,43.50
2019-04-30T18:08:17.400Z,43.60
2019-04-30T18:11:23.139Z,43.60
2019-04-30T18:14:30.545Z,43.90
2019-04-30T18:17:36.193Z,44.00
2019-04-30T18:20:50.317Z,43.90
2019-04-30T18:24:17.035Z,44.10
2019-04-30T18:27:26.252Z,43.90
2019-04-30T18:30:34.517Z,44.00
2019-04-30T18:33:40.607Z,43.90
2019-04-30T18:36:46.388Z,43.90
2019-04-30T18:39:51.989Z,43.80
2019-04-30T18:42:59.360Z,43.90
2019-04-30T18:46:06.943Z,43.80
2019-04-30T18:49:12.648Z,44.00
2019-04-30T18:52:18.884Z,44.10
2019-04-30T18:55:24.649Z,44.80
2019-04-30T18:58:39.231Z,44.90
2019-04-30T19:01:38.752Z,44.90
2019-04-30T19:04:44.403Z,44.90
2019-04-30T19:07:55.469Z,44.80
2019-04-30T19:11:19.076Z,44.70
2019-04-30T19:14:49.834Z,44.70
2019-04-30T19:18:13.292Z,44.60
2019-04-30T19:21:19.314Z,44.60
2019-04-30T19:24:25.097Z,44.70
2019-04-30T19:27:30.873Z,44.70
2019-04-30T19:30:36.692Z,44.70
2019-04-30T19:33:42.504Z,44.70
2019-04-30T19:36:49.329Z,44.70
2019-04-30T19:39:55.090Z,44.70
2019-04-30T19:43:00.737Z,44.60
2019-04-30T19:46:06.573Z,44.50
2019-04-30T19:49:12.246Z,44.50
2019-04-30T19:52:19.262Z,43.80
2019-04-30T19:55:25.080Z,44.40
2019-04-30T19:58:47.647Z,44.40
2019-04-30T20:01:39.102Z,45.00
2019-04-30T20:04:45.000Z,45.00
2019-04-30T20:07:50.664Z,44.70
2019-04-30T20:10:59.313Z,44.60
2019-04-30T20:14:05.122Z,44.60
2019-04-30T20:17:13.138Z,44.80
2019-04-30T20:20:18.977Z,44.90
2019-04-30T20:23:24.690Z,45.10
2019-04-30T20:26:31.329Z,45.10
2019-04-30T20:29:38.101Z,45.10
2019-04-30T20:32:43.890Z,45.20
2019-04-30T20:35:49.565Z,45.20
2019-04-30T20:39:17.197Z,45.20
2019-04-30T20:42:22.960Z,45.20
2019-04-30T20:45:29.648Z,45.20
2019-04-30T20:48:35.488Z,44.30
2019-04-30T20:51:52.698Z,44.70
2019-04-30T20:54:48.859Z,44.40
2019-04-30T20:57:56.207Z,43.90
2019-04-30T21:01:06.289Z,44.00
2019-04-30T21:04:09.324Z,43.90
2019-04-30T21:07:15.121Z,44.20
2019-04-30T21:10:20.913Z,43.80
2019-04-30T21:13:26.857Z,43.70
2019-04-30T21:16:32.530Z,43.40
2019-04-30T21:19:38.266Z,44.00
2019-04-30T21:22:44.328Z,43.70
2019-04-30T21:25:49.985Z,43.40
2019-04-30T21:29:00.824Z,43.30
2019-04-30T21:32:29.012Z,43.20
2019-04-30T21:35:48.626Z,43.40
2019-04-30T21:38:56.074Z,43.40
2019-04-30T21:42:01.955Z,43.40
2019-04-30T21:45:08.020Z,43.50
2019-04-30T21:48:13.718Z,43.50
2019-04-30T21:51:19.386Z,43.50
2019-04-30T21:54:26.092Z,43.40
2019-04-30T21:57:31.989Z,43.40
2019-04-30T22:01:02.580Z,44.00
2019-04-30T22:04:09.405Z,43.40
2019-04-30T22:07:16.101Z,43.40
2019-04-30T22:10:26.017Z,43.60
2019-04-30T22:13:31.813Z,43.50
2019-04-30T22:16:39.642Z,43.20
2019-04-30T22:19:45.132Z,44.10
2019-04-30T22:22:50.802Z,43.60
2019-04-30T22:25:56.407Z,43.40
2019-04-30T22:29:02.133Z,43.40
2019-04-30T22:32:09.328Z,43.50
2019-04-30T22:35:33.754Z,43.50
2019-04-30T22:38:45.328Z,43.50
2019-04-30T22:41:51.039Z,41.50
2019-04-30T22:44:56.925Z,42.20
2019-04-30T22:48:02.565Z,42.80
2019-04-30T22:51:08.164Z,43.10
2019-04-30T22:54:13.972Z,43.10
2019-04-30T22:57:19.723Z,43.10
2019-04-30T23:00:34.130Z,43.10
2019-04-30T23:03:39.669Z,43.10
2019-04-30T23:06:45.124Z,43.10
2019-04-30T23:09:50.601Z,43.20
2019-04-30T23:12:56.158Z,43.20
2019-04-30T23:16:01.713Z,43.20
2019-04-30T23:19:07.252Z,43.20
2019-04-30T23:22:12.693Z,43.40
2019-04-30T23:25:18.260Z,43.40
2019-04-30T23:28:23.726Z,43.50
2019-04-30T23:31:29.157Z,43.50
2019-04-30T23:34:34.639Z,43.60
2019-04-30T23:37:40.080Z,43.70
2019-04-30T23:40:49.222Z,44.30
2019-04-30T23:43:55.103Z,43.80
2019-04-30T23:47:00.661Z,44.60
2019-04-30T23:50:06.602Z,44.00
2019-04-30T23:53:12.136Z,44.00
2019-04-30T23:56:17.580Z,44.00
2019-04-30T23:59:23.058Z,43.90
